Tonic Sea — D5AZ8 — position and weather

sailwx.info

Track history (hours):
 
Tides and Currents Weather Stations Pressure Air Temp Water Temp Dewpoint Dewpoint Depression Visibility Wind Speed Wind Dir Waves Ship Positions

Tonic Sea

Last reported at 2015-Apr-26 13:08 UTC. Time now 2015-Apr-27 20:42 UTC.
Position N 60°07' E 027°32'.

Length 229 m; draft 9 m.

Type: Cargo ship. MMSI: 636015479.

Date/timePositionNaut miles runAvg speedWind from/ knotsBaromVisibWave heightAir tempDewpointWater temp
2015-Apr-26 13:08N 60°07' E 027°32'2213.9
2015-Apr-26 11:33N 59°59' E 026°51'5914.7
2015-Apr-26 07:34N 59°47' E 024°57'1514.8
2015-Apr-26 06:33N 59°44' E 024°28'1614.8
2015-Apr-26 05:30N 59°40' E 023°59'33814.6
2015-Apr-25 06:22N 55°52' E 016°09'1214.4
2015-Apr-25 05:33N 55°46' E 015°51'1514.8
2015-Apr-25 04:34N 55°39' E 015°28'1514.5
2015-Apr-25 03:34N 55°32' E 015°06'1514.6
2015-Apr-25 02:34N 55°25' E 014°43'1414.4
2015-Apr-25 01:34N 55°15' E 014°26'1312.6
2015-Apr-25 00:33N 55°10' E 014°05'1414.1
2015-Apr-24 23:33N 55°11' E 013°40'1414.4
2015-Apr-24 22:33N 55°12' E 013°15'1414.1
2015-Apr-24 21:33N 55°15' E 012°51'1211.6
2015-Apr-24 20:33N 55°25' E 012°39'1211.7
2015-Apr-24 19:33N 55°36' E 012°42'1312.6
2015-Apr-24 18:34N 55°49' E 012°42'1413.7
2015-Apr-24 17:33N 56°03' E 012°39'1414.1
2015-Apr-24 16:33N 56°12' E 012°19'1212.2
2015-Apr-24 15:34N 56°20' E 012°03'1414.2
2015-Apr-24 14:33N 56°33' E 011°57'1414.2
2015-Apr-24 13:33N 56°47' E 011°51'1714.1
2015-Apr-24 12:20N 57°04' E 011°40'1114.5
2015-Apr-24 11:33N 57°14' E 011°33'1414.0
2015-Apr-24 10:33N 57°27' E 011°24'1414.4
2015-Apr-24 09:33N 57°37' E 011°05'1514.3
2015-Apr-24 08:32N 57°41' E 010°39'0 0.2
2015-Apr-24 06:21N 57°42' E 010°38'0 0.0
2015-Apr-24 05:24N 57°42' E 010°38'0 0.0
2015-Apr-24 04:33N 57°42' E 010°38'2 1.8
2015-Apr-24 03:33N 57°43' E 010°40'5810.7
2015-Apr-23 22:08N 57°27' E 008°56'16013.8
2015-Apr-23 10:33N 55°18' E 006°06'1614.0
2015-Apr-23 09:25N 55°04' E 005°51'1214.0
2015-Apr-23 08:32N 54°54' E 005°40'1313.7
2015-Apr-23 07:33N 54°43' E 005°28'1413.5
2015-Apr-23 06:33N 54°31' E 005°16'1313.4
2015-Apr-23 05:33N 54°19' E 005°06'1313.3
2015-Apr-23 04:33N 54°07' E 004°58'1413.6
2015-Apr-23 03:32N 53°53' E 004°55'1313.3
2015-Apr-23 02:33N 53°40' E 004°50'1312.8
2015-Apr-23 01:34N 53°28' E 004°44'1312.8
2015-Apr-23 00:34N 53°16' E 004°36'1312.7
2015-Apr-22 23:33N 53°05' E 004°26'1312.6
2015-Apr-22 22:33N 52°54' E 004°16'1313.0
2015-Apr-22 21:33N 52°43' E 004°05'1413.6
2015-Apr-22 20:33N 52°30' E 003°55'1414.1
2015-Apr-22 19:33N 52°16' E 003°52'1414.4
2015-Apr-22 18:33N 52°02' E 003°57'1110.9
2015-Apr-22 17:33N 51°56' E 004°12'4 4.2
2015-Apr-22 16:33N 51°53' E 004°17'0 0.1
2015-Apr-22 15:33N 51°53' E 004°16'0 0.0
2015-Apr-22 14:33N 51°53' E 004°16'0 0.0
2015-Apr-22 13:33N 51°53' E 004°16'0 0.0
2015-Apr-22 12:33N 51°53' E 004°16'0 0.0
2015-Apr-22 11:33N 51°53' E 004°16'0 0.0
2015-Apr-22 10:33N 51°53' E 004°16'0 0.0
2015-Apr-22 09:33N 51°53' E 004°16'0 0.0
2015-Apr-22 08:33N 51°53' E 004°16'0 0.0
2015-Apr-22 07:33N 51°53' E 004°16'0 0.0
2015-Apr-22 06:33N 51°53' E 004°16'0 0.0
2015-Apr-22 05:33N 51°53' E 004°16'0 0.0
2015-Apr-22 04:33N 51°53' E 004°16'0 0.0
2015-Apr-22 03:33N 51°53' E 004°16'0 0.0
2015-Apr-22 02:27N 51°53' E 004°16'0 0.0
2015-Apr-22 01:24N 51°53' E 004°16'0 0.0
2015-Apr-22 00:33N 51°53' E 004°16'0 0.0
2015-Apr-21 23:33N 51°53' E 004°16'0 0.0
2015-Apr-21 22:34N 51°53' E 004°16'0 0.0
2015-Apr-21 21:34N 51°53' E 004°16'0 0.0
2015-Apr-21 20:34N 51°53' E 004°16'0 0.0
2015-Apr-21 19:34N 51°53' E 004°16'0 0.0
2015-Apr-21 18:34N 51°53' E 004°16'0 0.0
2015-Apr-21 17:34N 51°53' E 004°16'0 0.0
2015-Apr-21 16:34N 51°53' E 004°16'0 0.0
2015-Apr-21 15:34N 51°53' E 004°16'0 0.0
2015-Apr-21 14:34N 51°53' E 004°16'0 0.0
2015-Apr-21 13:33N 51°53' E 004°16'0 0.0
2015-Apr-21 12:34N 51°53' E 004°16'0 0.0
2015-Apr-21 11:34N 51°53' E 004°16'0 0.0
2015-Apr-21 10:34N 51°53' E 004°16'0 0.0
2015-Apr-21 09:34N 51°53' E 004°16'0 0.0
2015-Apr-21 08:33N 51°53' E 004°16'0 0.0
2015-Apr-21 07:34N 51°53' E 004°16'0 0.0
2015-Apr-21 06:34N 51°53' E 004°16'0 0.0
2015-Apr-21 05:34N 51°53' E 004°16'0 0.0
2015-Apr-21 04:34N 51°53' E 004°16'0 0.0
2015-Apr-21 03:33N 51°53' E 004°16'0 0.0
2015-Apr-21 02:34N 51°53' E 004°16'0 0.0
2015-Apr-21 01:34N 51°53' E 004°16'0 0.0
2015-Apr-21 00:34N 51°53' E 004°16'0 0.0
2015-Apr-20 23:34N 51°53' E 004°16'0 0.0
2015-Apr-20 22:33N 51°53' E 004°16'0 0.0
2015-Apr-20 21:34N 51°53' E 004°16'0 0.0
2015-Apr-20 20:34N 51°53' E 004°16'0 0.0
2015-Apr-20 19:33N 51°53' E 004°16'0 0.0
2015-Apr-20 18:34N 51°53' E 004°16'0 0.0
2015-Apr-20 17:34N 51°53' E 004°16'0 0.0
2015-Apr-20 16:34N 51°53' E 004°16'0 0.0
2015-Apr-20 15:34N 51°53' E 004°16'0 0.0
2015-Apr-20 14:34N 51°53' E 004°16'0 0.0
2015-Apr-20 13:34N 51°53' E 004°16'0 0.0
2015-Apr-20 12:33N 51°53' E 004°16'0 0.0
2015-Apr-20 11:34N 51°53' E 004°16'0 0.0
2015-Apr-20 10:34N 51°53' E 004°16'0 0.0
2015-Apr-20 09:34N 51°53' E 004°16'0 0.0
2015-Apr-20 08:33N 51°53' E 004°16'0 0.0
2015-Apr-20 07:34N 51°53' E 004°16'0 0.0
2015-Apr-20 06:34N 51°53' E 004°16'0 0.0
2015-Apr-20 05:33N 51°53' E 004°16'0 0.0
2015-Apr-20 04:33N 51°53' E 004°16'0 0.0
2015-Apr-20 03:33N 51°53' E 004°16'0 0.0
2015-Apr-20 02:33N 51°53' E 004°16'0 0.0
2015-Apr-20 01:34N 51°53' E 004°16'0 0.0
2015-Apr-20 00:33N 51°53' E 004°16'0 0.0
2015-Apr-19 23:34N 51°53' E 004°16'0 0.0
2015-Apr-19 22:33N 51°53' E 004°16'0 0.0
2015-Apr-19 21:34N 51°53' E 004°16'0 0.0
2015-Apr-19 20:34N 51°53' E 004°16'0 0.0
2015-Apr-19 19:34N 51°53' E 004°16'0 0.0
2015-Apr-19 18:34N 51°53' E 004°16'0 0.0
2015-Apr-19 17:34N 51°53' E 004°16'0 0.0
2015-Apr-19 16:34N 51°53' E 004°16'0 0.0
2015-Apr-19 15:33N 51°53' E 004°16'0 0.0
2015-Apr-19 14:34N 51°53' E 004°16'0 0.0
2015-Apr-19 13:34N 51°53' E 004°16'0 0.0
2015-Apr-19 12:34N 51°53' E 004°16'0 0.0
2015-Apr-19 11:34N 51°53' E 004°16'0 0.0
2015-Apr-19 10:34N 51°53' E 004°16'0 0.0
2015-Apr-19 09:34N 51°53' E 004°16'0 0.0
2015-Apr-19 08:34N 51°53' E 004°16'0 0.0
2015-Apr-19 07:34N 51°53' E 004°16'0 0.0
2015-Apr-19 06:34N 51°53' E 004°16'0 0.0
2015-Apr-19 05:33N 51°53' E 004°16'0 0.0
2015-Apr-19 04:33N 51°53' E 004°16'0 0.0
2015-Apr-19 03:33N 51°53' E 004°16'0 0.0
2015-Apr-19 02:34N 51°53' E 004°16'0 0.0
2015-Apr-19 01:34N 51°53' E 004°16'0 0.0
2015-Apr-19 00:34N 51°53' E 004°16'0 0.0
2015-Apr-18 23:34N 51°53' E 004°16'0 0.0
2015-Apr-18 22:34N 51°53' E 004°16'0 0.0
2015-Apr-18 21:34N 51°53' E 004°16'0 0.0
2015-Apr-18 20:34N 51°53' E 004°16'0 0.0
2015-Apr-18 19:34N 51°53' E 004°16'0 0.0
2015-Apr-18 18:34N 51°53' E 004°16'0 0.0
2015-Apr-18 17:34N 51°53' E 004°16'0 0.0
2015-Apr-18 16:34N 51°53' E 004°16'0 0.0
2015-Apr-18 15:33N 51°53' E 004°16'0 0.0
2015-Apr-18 14:33N 51°53' E 004°16'0 0.0
2015-Apr-18 13:34N 51°53' E 004°16'0 0.0
2015-Apr-18 12:34N 51°53' E 004°16'0 0.0
2015-Apr-18 11:34N 51°53' E 004°16'0 0.0
2015-Apr-18 10:34N 51°53' E 004°16'0 0.0
2015-Apr-18 09:34N 51°53' E 004°16'0 0.0
2015-Apr-18 08:34N 51°53' E 004°16'0 0.0
2015-Apr-18 07:33N 51°53' E 004°16'0 0.0
2015-Apr-18 06:33N 51°53' E 004°16'0 0.0
2015-Apr-18 05:34N 51°53' E 004°16'0 0.0
2015-Apr-18 04:34N 51°53' E 004°16'0 0.0
2015-Apr-18 03:33N 51°53' E 004°16'0 0.0
2015-Apr-18 02:34N 51°53' E 004°16'0 0.0
2015-Apr-18 01:34N 51°53' E 004°16'0 0.0
2015-Apr-18 00:34N 51°53' E 004°16'0 0.0
2015-Apr-17 23:33N 51°53' E 004°16'0 0.0
2015-Apr-17 22:34N 51°53' E 004°16'0 0.0
2015-Apr-17 21:34N 51°53' E 004°16'0 0.0
2015-Apr-17 20:34N 51°53' E 004°16'0 0.0
2015-Apr-17 19:33N 51°53' E 004°16'0 0.0
2015-Apr-17 18:34N 51°53' E 004°16'0 0.0
2015-Apr-17 17:34N 51°53' E 004°16'0 0.0
2015-Apr-17 16:34N 51°53' E 004°16'0 0.0
2015-Apr-17 15:34N 51°53' E 004°17'2 1.9
2015-Apr-17 14:34N 51°55' E 004°15'9 8.7
2015-Apr-17 13:34N 51°59' E 004°03'1111.1
2015-Apr-17 12:33N 52°02' E 003°45'9 9.4
2015-Apr-17 11:33N 52°09' E 003°35'2 0.2
2015-Apr-17 01:26N 52°11' E 003°34'0 0.0
2015-Apr-17 00:26N 52°11' E 003°34'0 0.0
2015-Apr-16 23:32N 52°11' E 003°34'0 0.3
2015-Apr-16 22:29N 52°10' E 003°33'0 0.0
2015-Apr-16 20:30N 52°10' E 003°33'0 0.0
2015-Apr-16 19:33N 52°10' E 003°33'0 0.0
2015-Apr-16 18:33N 52°10' E 003°33'0 0.0
2015-Apr-16 17:34N 52°10' E 003°33'2 1.7
2015-Apr-16 16:33N 52°10' E 003°36'9 9.0
2015-Apr-16 15:33N 52°16' E 003°47'10 9.7
2015-Apr-16 14:34N 52°26' E 003°50'9 8.9
2015-Apr-16 13:33N 52°35' E 003°53'  
Track history (hours):
 
Tides and Currents Weather Stations Pressure Air Temp Water Temp Dewpoint Dewpoint Depression Visibility Wind Speed Wind Dir Waves Ship Positions

Tonic Sea

Last reported at 2015-Apr-26 13:08 UTC. Time now 2015-Apr-27 20:42 UTC.
Position N 60°07' E 027°32'.

Length 229 m; draft 9 m.

Type: Cargo ship. MMSI: 636015479.

Date/timePositionNaut miles runAvg speedWind from/ knotsBaromVisibWave heightAir tempDewpointWater temp
2015-Apr-26 13:08N 60°07' E 027°32'2213.9
2015-Apr-26 11:33N 59°59' E 026°51'5914.7
2015-Apr-26 07:34N 59°47' E 024°57'1514.8
2015-Apr-26 06:33N 59°44' E 024°28'1614.8
2015-Apr-26 05:30N 59°40' E 023°59'33814.6
2015-Apr-25 06:22N 55°52' E 016°09'1214.4
2015-Apr-25 05:33N 55°46' E 015°51'1514.8
2015-Apr-25 04:34N 55°39' E 015°28'1514.5
2015-Apr-25 03:34N 55°32' E 015°06'1514.6
2015-Apr-25 02:34N 55°25' E 014°43'1414.4
2015-Apr-25 01:34N 55°15' E 014°26'1312.6
2015-Apr-25 00:33N 55°10' E 014°05'1414.1
2015-Apr-24 23:33N 55°11' E 013°40'1414.4
2015-Apr-24 22:33N 55°12' E 013°15'1414.1
2015-Apr-24 21:33N 55°15' E 012°51'1211.6
2015-Apr-24 20:33N 55°25' E 012°39'1211.7
2015-Apr-24 19:33N 55°36' E 012°42'1312.6
2015-Apr-24 18:34N 55°49' E 012°42'1413.7
2015-Apr-24 17:33N 56°03' E 012°39'1414.1
2015-Apr-24 16:33N 56°12' E 012°19'1212.2
2015-Apr-24 15:34N 56°20' E 012°03'1414.2
2015-Apr-24 14:33N 56°33' E 011°57'1414.2
2015-Apr-24 13:33N 56°47' E 011°51'1714.1
2015-Apr-24 12:20N 57°04' E 011°40'1114.5
2015-Apr-24 11:33N 57°14' E 011°33'1414.0
2015-Apr-24 10:33N 57°27' E 011°24'1414.4
2015-Apr-24 09:33N 57°37' E 011°05'1514.3
2015-Apr-24 08:32N 57°41' E 010°39'0 0.2
2015-Apr-24 06:21N 57°42' E 010°38'0 0.0
2015-Apr-24 05:24N 57°42' E 010°38'0 0.0
2015-Apr-24 04:33N 57°42' E 010°38'2 1.8
2015-Apr-24 03:33N 57°43' E 010°40'5810.7
2015-Apr-23 22:08N 57°27' E 008°56'16013.8
2015-Apr-23 10:33N 55°18' E 006°06'1614.0
2015-Apr-23 09:25N 55°04' E 005°51'1214.0
2015-Apr-23 08:32N 54°54' E 005°40'1313.7
2015-Apr-23 07:33N 54°43' E 005°28'1413.5
2015-Apr-23 06:33N 54°31' E 005°16'1313.4
2015-Apr-23 05:33N 54°19' E 005°06'1313.3
2015-Apr-23 04:33N 54°07' E 004°58'1413.6
2015-Apr-23 03:32N 53°53' E 004°55'1313.3
2015-Apr-23 02:33N 53°40' E 004°50'1312.8
2015-Apr-23 01:34N 53°28' E 004°44'1312.8
2015-Apr-23 00:34N 53°16' E 004°36'1312.7
2015-Apr-22 23:33N 53°05' E 004°26'1312.6
2015-Apr-22 22:33N 52°54' E 004°16'1313.0
2015-Apr-22 21:33N 52°43' E 004°05'1413.6
2015-Apr-22 20:33N 52°30' E 003°55'1414.1
2015-Apr-22 19:33N 52°16' E 003°52'1414.4
2015-Apr-22 18:33N 52°02' E 003°57'1110.9
2015-Apr-22 17:33N 51°56' E 004°12'4 4.2
2015-Apr-22 16:33N 51°53' E 004°17'0 0.1
2015-Apr-22 15:33N 51°53' E 004°16'0 0.0
2015-Apr-22 14:33N 51°53' E 004°16'0 0.0
2015-Apr-22 13:33N 51°53' E 004°16'0 0.0
2015-Apr-22 12:33N 51°53' E 004°16'0 0.0
2015-Apr-22 11:33N 51°53' E 004°16'0 0.0
2015-Apr-22 10:33N 51°53' E 004°16'0 0.0
2015-Apr-22 09:33N 51°53' E 004°16'0 0.0
2015-Apr-22 08:33N 51°53' E 004°16'0 0.0
2015-Apr-22 07:33N 51°53' E 004°16'0 0.0
2015-Apr-22 06:33N 51°53' E 004°16'0 0.0
2015-Apr-22 05:33N 51°53' E 004°16'0 0.0
2015-Apr-22 04:33N 51°53' E 004°16'0 0.0
2015-Apr-22 03:33N 51°53' E 004°16'0 0.0
2015-Apr-22 02:27N 51°53' E 004°16'0 0.0
2015-Apr-22 01:24N 51°53' E 004°16'0 0.0
2015-Apr-22 00:33N 51°53' E 004°16'0 0.0
2015-Apr-21 23:33N 51°53' E 004°16'0 0.0
2015-Apr-21 22:34N 51°53' E 004°16'0 0.0
2015-Apr-21 21:34N 51°53' E 004°16'0 0.0
2015-Apr-21 20:34N 51°53' E 004°16'0 0.0
2015-Apr-21 19:34N 51°53' E 004°16'0 0.0
2015-Apr-21 18:34N 51°53' E 004°16'0 0.0
2015-Apr-21 17:34N 51°53' E 004°16'0 0.0
2015-Apr-21 16:34N 51°53' E 004°16'0 0.0
2015-Apr-21 15:34N 51°53' E 004°16'0 0.0
2015-Apr-21 14:34N 51°53' E 004°16'0 0.0
2015-Apr-21 13:33N 51°53' E 004°16'0 0.0
2015-Apr-21 12:34N 51°53' E 004°16'0 0.0
2015-Apr-21 11:34N 51°53' E 004°16'0 0.0
2015-Apr-21 10:34N 51°53' E 004°16'0 0.0
2015-Apr-21 09:34N 51°53' E 004°16'0 0.0
2015-Apr-21 08:33N 51°53' E 004°16'0 0.0
2015-Apr-21 07:34N 51°53' E 004°16'0 0.0
2015-Apr-21 06:34N 51°53' E 004°16'0 0.0
2015-Apr-21 05:34N 51°53' E 004°16'0 0.0
2015-Apr-21 04:34N 51°53' E 004°16'0 0.0
2015-Apr-21 03:33N 51°53' E 004°16'0 0.0
2015-Apr-21 02:34N 51°53' E 004°16'0 0.0
2015-Apr-21 01:34N 51°53' E 004°16'0 0.0
2015-Apr-21 00:34N 51°53' E 004°16'0 0.0
2015-Apr-20 23:34N 51°53' E 004°16'0 0.0
2015-Apr-20 22:33N 51°53' E 004°16'0 0.0
2015-Apr-20 21:34N 51°53' E 004°16'0 0.0
2015-Apr-20 20:34N 51°53' E 004°16'0 0.0
2015-Apr-20 19:33N 51°53' E 004°16'0 0.0
2015-Apr-20 18:34N 51°53' E 004°16'0 0.0
2015-Apr-20 17:34N 51°53' E 004°16'0 0.0
2015-Apr-20 16:34N 51°53' E 004°16'0 0.0
2015-Apr-20 15:34N 51°53' E 004°16'0 0.0
2015-Apr-20 14:34N 51°53' E 004°16'0 0.0
2015-Apr-20 13:34N 51°53' E 004°16'0 0.0
2015-Apr-20 12:33N 51°53' E 004°16'0 0.0
2015-Apr-20 11:34N 51°53' E 004°16'0 0.0
2015-Apr-20 10:34N 51°53' E 004°16'0 0.0
2015-Apr-20 09:34N 51°53' E 004°16'0 0.0
2015-Apr-20 08:33N 51°53' E 004°16'0 0.0
2015-Apr-20 07:34N 51°53' E 004°16'0 0.0
2015-Apr-20 06:34N 51°53' E 004°16'0 0.0
2015-Apr-20 05:33N 51°53' E 004°16'0 0.0
2015-Apr-20 04:33N 51°53' E 004°16'0 0.0
2015-Apr-20 03:33N 51°53' E 004°16'0 0.0
2015-Apr-20 02:33N 51°53' E 004°16'0 0.0
2015-Apr-20 01:34N 51°53' E 004°16'0 0.0
2015-Apr-20 00:33N 51°53' E 004°16'0 0.0
2015-Apr-19 23:34N 51°53' E 004°16'0 0.0
2015-Apr-19 22:33N 51°53' E 004°16'0 0.0
2015-Apr-19 21:34N 51°53' E 004°16'0 0.0
2015-Apr-19 20:34N 51°53' E 004°16'0 0.0
2015-Apr-19 19:34N 51°53' E 004°16'0 0.0
2015-Apr-19 18:34N 51°53' E 004°16'0 0.0
2015-Apr-19 17:34N 51°53' E 004°16'0 0.0
2015-Apr-19 16:34N 51°53' E 004°16'0 0.0
2015-Apr-19 15:33N 51°53' E 004°16'0 0.0
2015-Apr-19 14:34N 51°53' E 004°16'0 0.0
2015-Apr-19 13:34N 51°53' E 004°16'0 0.0
2015-Apr-19 12:34N 51°53' E 004°16'0 0.0
2015-Apr-19 11:34N 51°53' E 004°16'0 0.0
2015-Apr-19 10:34N 51°53' E 004°16'0 0.0
2015-Apr-19 09:34N 51°53' E 004°16'0 0.0
2015-Apr-19 08:34N 51°53' E 004°16'0 0.0
2015-Apr-19 07:34N 51°53' E 004°16'0 0.0
2015-Apr-19 06:34N 51°53' E 004°16'0 0.0
2015-Apr-19 05:33N 51°53' E 004°16'0 0.0
2015-Apr-19 04:33N 51°53' E 004°16'0 0.0
2015-Apr-19 03:33N 51°53' E 004°16'0 0.0
2015-Apr-19 02:34N 51°53' E 004°16'0 0.0
2015-Apr-19 01:34N 51°53' E 004°16'0 0.0
2015-Apr-19 00:34N 51°53' E 004°16'0 0.0
2015-Apr-18 23:34N 51°53' E 004°16'0 0.0
2015-Apr-18 22:34N 51°53' E 004°16'0 0.0
2015-Apr-18 21:34N 51°53' E 004°16'0 0.0
2015-Apr-18 20:34N 51°53' E 004°16'0 0.0
2015-Apr-18 19:34N 51°53' E 004°16'0 0.0
2015-Apr-18 18:34N 51°53' E 004°16'0 0.0
2015-Apr-18 17:34N 51°53' E 004°16'0 0.0
2015-Apr-18 16:34N 51°53' E 004°16'0 0.0
2015-Apr-18 15:33N 51°53' E 004°16'0 0.0
2015-Apr-18 14:33N 51°53' E 004°16'0 0.0
2015-Apr-18 13:34N 51°53' E 004°16'0 0.0
2015-Apr-18 12:34N 51°53' E 004°16'0 0.0
2015-Apr-18 11:34N 51°53' E 004°16'0 0.0
2015-Apr-18 10:34N 51°53' E 004°16'0 0.0
2015-Apr-18 09:34N 51°53' E 004°16'0 0.0
2015-Apr-18 08:34N 51°53' E 004°16'0 0.0
2015-Apr-18 07:33N 51°53' E 004°16'0 0.0
2015-Apr-18 06:33N 51°53' E 004°16'0 0.0
2015-Apr-18 05:34N 51°53' E 004°16'0 0.0
2015-Apr-18 04:34N 51°53' E 004°16'0 0.0
2015-Apr-18 03:33N 51°53' E 004°16'0 0.0
2015-Apr-18 02:34N 51°53' E 004°16'0 0.0
2015-Apr-18 01:34N 51°53' E 004°16'0 0.0
2015-Apr-18 00:34N 51°53' E 004°16'0 0.0
2015-Apr-17 23:33N 51°53' E 004°16'0 0.0
2015-Apr-17 22:34N 51°53' E 004°16'0 0.0
2015-Apr-17 21:34N 51°53' E 004°16'0 0.0
2015-Apr-17 20:34N 51°53' E 004°16'0 0.0
2015-Apr-17 19:33N 51°53' E 004°16'0 0.0
2015-Apr-17 18:34N 51°53' E 004°16'0 0.0
2015-Apr-17 17:34N 51°53' E 004°16'0 0.0
2015-Apr-17 16:34N 51°53' E 004°16'0 0.0
2015-Apr-17 15:34N 51°53' E 004°17'2 1.9
2015-Apr-17 14:34N 51°55' E 004°15'9 8.7
2015-Apr-17 13:34N 51°59' E 004°03'1111.1
2015-Apr-17 12:33N 52°02' E 003°45'9 9.4
2015-Apr-17 11:33N 52°09' E 003°35'2 0.2
2015-Apr-17 01:26N 52°11' E 003°34'0 0.0
2015-Apr-17 00:26N 52°11' E 003°34'0 0.0
2015-Apr-16 23:32N 52°11' E 003°34'0 0.3
2015-Apr-16 22:29N 52°10' E 003°33'0 0.0
2015-Apr-16 20:30N 52°10' E 003°33'0 0.0
2015-Apr-16 19:33N 52°10' E 003°33'0 0.0
2015-Apr-16 18:33N 52°10' E 003°33'0 0.0
2015-Apr-16 17:34N 52°10' E 003°33'2 1.7
2015-Apr-16 16:33N 52°10' E 003°36'9 9.0
2015-Apr-16 15:33N 52°16' E 003°47'10 9.7
2015-Apr-16 14:34N 52°26' E 003°50'9 8.9
2015-Apr-16 13:33N 52°35' E 003°53'  

Dump ship's entire track history